(°C)
(°C)
جنوب
جنوب
SSW
SSW
SSW
SSW
SSW
(كم/سا)
24-41
23-41
24-41
24-42
25-41
24-41
24-39
(مم)
0
0
0
1
1.7
0
0
(%)
33
32
39
53
45
39
32

مستوى ارتفاع الشمس

/ -0.7°
sun-icon
UV 0
08:03
17:57
قمر المساء (201°)
18:29
09:54

متر ل57.92°شمال 56.02°شرق (USPP)

الوقت الشروط درجة الحرارة/
نقطة الندى
رياح مجال رؤية حالة الطقس غيوم الضغط تغيير خام
IFR 9°C / 7°C 230º 14kt >10km - Overcast 900ft 992 Temporary: Visibility 1500. Mist . RMK QFE734 . Runway 21: Wet or puddles, 51-100% contamination with 1mm, friction coefficient 0.50. USPP 221230Z 23007MPS 9999 OVC009 09/07 Q0992 R21/290150 TEMPO 1500 BR RMK QFE734
IFR 9°C / 7°C 220º 16kt 9000m - Overcast 700ft 992 Temporary: Visibility 1500. Mist . RMK QFE733 . Runway 21: Wet or puddles, 51-100% contamination with 1mm, friction coefficient 0.50. USPP 221200Z 22008MPS 9000 OVC007 09/07 Q0992 R21/290150 TEMPO 1500 BR RMK QFE733
IFR 9°C / 7°C 220º 17kt 9000m - Overcast 600ft 992 Temporary: Visibility 1500. Mist . RMK QBB200 QFE733 . Runway 21: Wet or puddles, 51-100% contamination with 1mm, friction coefficient 0.50. USPP 221130Z 22009MPS 9000 OVC006 09/07 Q0992 R21/290150 TEMPO 1500 BR RMK QBB200 QFE733
IFR 8°C / 7°C 220º 16kt 9000m - Broken Clouds 600ft
Overcast 1700ft
992 No Significant change. Runway 21: Wet or puddles, 51-100% contamination with 1mm, friction coefficient 0.50. USPP 221100Z 22008MPS 9000 BKN006 OVC017 08/07 Q0992 R21/290150 NOSIG RMK QBB190 QFE734
IFR 8°C / 7°C 210º 16kt >10km - Broken Clouds 700ft
Overcast 1700ft
992 No Significant change. Runway 21: Wet or puddles, 51-100% contamination with 1mm, friction coefficient 0.50. USPP 221030Z 21008MPS 9999 BKN007 OVC017 08/07 Q0992 R21/290150 NOSIG RMK QFE734
IFR 8°C / 7°C 210º 12kt >10km Light Rain 1.00mm precipitation Vertical Visibility of 0ft.
Overcast 1700ft
993 No Significant change. Runway 21: Wet or puddles, 51-100% contamination with 1mm, friction coefficient 0.50. USPP 221000Z 21006MPS 9999 -RA BKN009 OVC017 08/07 Q0993 R21/290150 NOSIG RMK QFE734
IFR 8°C / 6°C 220º 14kt. Wind Shear present on Runway 21. >10km Light Rain 1.00mm precipitation Vertical Visibility of 0ft.
Overcast 2700ft
993 No Significant change. Runway 21: Wet or puddles, 51-100% contamination with 1mm, friction coefficient 0.50. USPP 220930Z 22007MPS 9999 -RA BKN007 OVC027 08/06 Q0993 WS R21 R21/290150 NOSIG RMK QFE734
IFR 7°C / 6°C 220º 16kt. Wind Shear present on Runway 21. >10km Light Rain 1.00mm precipitation Vertical Visibility of 0ft.
Overcast 2300ft
993 No Significant change. Runway 21: Wet or puddles, 51-100% contamination with 1mm, friction coefficient 0.50. USPP 220900Z 22008MPS 9999 -RA BKN005 OVC023 07/06 Q0993 WS R21 R21/290150 NOSIG RMK QBB160 QFE734
IFR 7°C / 6°C 220º 16kt >10km - Broken Clouds 600ft
Broken Clouds 2300ft
994 No Significant change. Runway 21: Wet or puddles, 51-100% contamination with 1mm, friction coefficient 0.50. USPP 220830Z 22008MPS 9999 BKN006 BKN023 07/06 Q0994 R21/290150 NOSIG RMK QBB190 QFE735
IFR 7°C / 6°C 220º 12kt >10km Light Rain 1.00mm precipitation Vertical Visibility of 0ft.
Overcast 2600ft
993 No Significant change. Runway 21: Wet or puddles, 51-100% contamination with 1mm, friction coefficient 0.50. USPP 220800Z 22006MPS 9999 -RA BKN007 OVC026 07/06 Q0993 R21/290150 NOSIG RMK QFE735
IFR 7°C / 6°C 220º 14kt >10km Light Rain 1.00mm precipitation Vertical Visibility of 0ft.
Overcast 2800ft
994 No Significant change. Runway 21: Wet or puddles, 51-100% contamination with 1mm, friction coefficient 0.50. USPP 220730Z 22007MPS 9999 -RA BKN006 OVC028 07/06 Q0994 R21/290150 NOSIG RMK QBB180 QFE735
LIFR 7°C / 5°C 230º 10kt >10km - Overcast 400ft 994 No Significant change. Runway 21: Wet or puddles, 51-100% contamination with 1mm, friction coefficient 0.50. USPP 220700Z 23005MPS 9999 OVC004 07/05 Q0994 R21/290150 NOSIG RMK QBB130 QFE735
LIFR 6°C / 5°C 220º 14kt >10km - Overcast 400ft 994 No Significant change. Runway 21: Wet or puddles, 51-100% contamination with 1mm, friction coefficient 0.50. USPP 220630Z 22007MPS 9999 OVC004 06/05 Q0994 R21/290150 NOSIG RMK QBB130 QFE735
LIFR 6°C / 5°C 220º 12kt >10km - Overcast 400ft 994 No Significant change. Runway 21: Wet or puddles, 51-100% contamination with 1mm, friction coefficient 0.50. USPP 220600Z 22006MPS 9999 OVC004 06/05 Q0994 R21/290150 NOSIG RMK QBB140 QFE735
LIFR 6°C / 4°C 220º 12kt >10km - Overcast 400ft 994 No Significant change. Runway 21: Wet or puddles, 51-100% contamination with 1mm, friction coefficient 0.50. USPP 220530Z 22006MPS 9999 OVC004 06/04 Q0994 R21/290150 NOSIG RMK QBB130 QFE735
LIFR 5°C / 4°C 210º 12kt >10km - Overcast 400ft 995 No Significant change. Runway 21: Wet or puddles, 51-100% contamination with 1mm, friction coefficient 0.50. USPP 220500Z 21006MPS 9999 OVC004 05/04 Q0995 R21/290150 NOSIG RMK QBB130 QFE735
LIFR 5°C / 4°C 220º 14kt >10km - Overcast 300ft 995 No Significant change. Runway 21: Wet or puddles, 51-100% contamination with 1mm, friction coefficient 0.50. USPP 220430Z 22007MPS 9999 OVC003 05/04 Q0995 R21/290150 NOSIG RMK QBB110 QFE736
LIFR 4°C / 3°C 220º 12kt >10km - Overcast 400ft 995 No Significant change. Runway 21: Wet or puddles, 11-25% contamination with 1mm, friction coefficient 0.50. USPP 220400Z 22006MPS 9999 OVC004 04/03 Q0995 R21/220150 NOSIG RMK QBB120 QFE736
LIFR 4°C / 3°C 230º 10kt >10km - Overcast 400ft 995 No Significant change. Runway 21: Wet or puddles, 11-25% contamination with 1mm, friction coefficient 0.50. USPP 220330Z 23005MPS 9999 OVC004 04/03 Q0995 R21/220150 NOSIG RMK QBB140 QFE735
IFR 3°C / 2°C 230º 8kt >10km - Overcast 500ft 995 No Significant change. Runway 21: Wet or puddles, 11-25% contamination with 1mm, friction coefficient 0.50. USPP 220300Z 23004MPS 9999 OVC005 03/02 Q0995 R21/220150 NOSIG RMK QBB150 QFE735
LIFR 3°C / 2°C 220º 10kt >10km - Overcast 400ft 995 No Significant change. Runway 21: Wet or puddles, 11-25% contamination with 1mm, friction coefficient 0.50. USPP 220230Z 22005MPS 9999 OVC004 03/02 Q0995 R21/220150 NOSIG RMK QBB130 QFE735
LIFR 3°C / 2°C 230º 12kt >10km - Overcast 400ft 995 No Significant change. Runway 21: Slush, 11-25% contamination with 3mm, friction coefficient 0.45. USPP 220200Z 23006MPS 9999 OVC004 03/02 Q0995 R21/620345 NOSIG RMK QBB140 QFE735
IFR 3°C / 2°C 230º 10kt >10km - Overcast 500ft 994 No Significant change. Runway 21: Slush, 11-25% contamination with 3mm, friction coefficient 0.45. USPP 220130Z 23005MPS 9999 OVC005 03/02 Q0994 R21/620345 NOSIG RMK QBB170 QFE735
IFR 3°C / 1°C 230º 10kt >10km - Overcast 700ft 994 No Significant change. Runway 21: Slush, 11-25% contamination with 3mm, friction coefficient 0.45. USPP 220100Z 23005MPS 9999 OVC007 03/01 Q0994 R21/620345 NOSIG RMK QFE735

IFR

9°C / 7°C

[أكثر]
رياح 230º 14kt
مجال رؤية >10km
حالة الطقس -
غيوم Overcast 900ft
الضغط 992
تغيير Temporary: Visibility 1500. Mist . RMK QFE734 . Runway 21: Wet or puddles, 51-100% contamination with 1mm, friction coefficient 0.50.
خام USPP 221230Z 23007MPS 9999 OVC009 09/07 Q0992 R21/290150 TEMPO 1500 BR RMK QFE734

IFR

9°C / 7°C

[أكثر]
رياح 220º 16kt
مجال رؤية 9000m
حالة الطقس -
غيوم Overcast 700ft
الضغط 992
تغيير Temporary: Visibility 1500. Mist . RMK QFE733 . Runway 21: Wet or puddles, 51-100% contamination with 1mm, friction coefficient 0.50.
خام USPP 221200Z 22008MPS 9000 OVC007 09/07 Q0992 R21/290150 TEMPO 1500 BR RMK QFE733

IFR

9°C / 7°C

[أكثر]
رياح 220º 17kt
مجال رؤية 9000m
حالة الطقس -
غيوم Overcast 600ft
الضغط 992
تغيير Temporary: Visibility 1500. Mist . RMK QBB200 QFE733 . Runway 21: Wet or puddles, 51-100% contamination with 1mm, friction coefficient 0.50.
خام USPP 221130Z 22009MPS 9000 OVC006 09/07 Q0992 R21/290150 TEMPO 1500 BR RMK QBB200 QFE733

IFR

8°C / 7°C

[أكثر]
رياح 220º 16kt
مجال رؤية 9000m
حالة الطقس -
غيوم Broken Clouds 600ft
Overcast 1700ft
الضغط 992
تغيير No Significant change. Runway 21: Wet or puddles, 51-100% contamination with 1mm, friction coefficient 0.50.
خام USPP 221100Z 22008MPS 9000 BKN006 OVC017 08/07 Q0992 R21/290150 NOSIG RMK QBB190 QFE734

IFR

8°C / 7°C

[أكثر]
رياح 210º 16kt
مجال رؤية >10km
حالة الطقس -
غيوم Broken Clouds 700ft
Overcast 1700ft
الضغط 992
تغيير No Significant change. Runway 21: Wet or puddles, 51-100% contamination with 1mm, friction coefficient 0.50.
خام USPP 221030Z 21008MPS 9999 BKN007 OVC017 08/07 Q0992 R21/290150 NOSIG RMK QFE734

IFR

8°C / 7°C

[أكثر]
رياح 210º 12kt
مجال رؤية >10km
حالة الطقس Light Rain 1.00mm precipitation
غيوم Vertical Visibility of 0ft.
Overcast 1700ft
الضغط 993
تغيير No Significant change. Runway 21: Wet or puddles, 51-100% contamination with 1mm, friction coefficient 0.50.
خام USPP 221000Z 21006MPS 9999 -RA BKN009 OVC017 08/07 Q0993 R21/290150 NOSIG RMK QFE734

IFR

8°C / 6°C

[أكثر]
رياح 220º 14kt. Wind Shear present on Runway 21.
مجال رؤية >10km
حالة الطقس Light Rain 1.00mm precipitation
غيوم Vertical Visibility of 0ft.
Overcast 2700ft
الضغط 993
تغيير No Significant change. Runway 21: Wet or puddles, 51-100% contamination with 1mm, friction coefficient 0.50.
خام USPP 220930Z 22007MPS 9999 -RA BKN007 OVC027 08/06 Q0993 WS R21 R21/290150 NOSIG RMK QFE734

IFR

7°C / 6°C

[أكثر]
رياح 220º 16kt. Wind Shear present on Runway 21.
مجال رؤية >10km
حالة الطقس Light Rain 1.00mm precipitation
غيوم Vertical Visibility of 0ft.
Overcast 2300ft
الضغط 993
تغيير No Significant change. Runway 21: Wet or puddles, 51-100% contamination with 1mm, friction coefficient 0.50.
خام USPP 220900Z 22008MPS 9999 -RA BKN005 OVC023 07/06 Q0993 WS R21 R21/290150 NOSIG RMK QBB160 QFE734

IFR

7°C / 6°C

[أكثر]
رياح 220º 16kt
مجال رؤية >10km
حالة الطقس -
غيوم Broken Clouds 600ft
Broken Clouds 2300ft
الضغط 994
تغيير No Significant change. Runway 21: Wet or puddles, 51-100% contamination with 1mm, friction coefficient 0.50.
خام USPP 220830Z 22008MPS 9999 BKN006 BKN023 07/06 Q0994 R21/290150 NOSIG RMK QBB190 QFE735

IFR

7°C / 6°C

[أكثر]
رياح 220º 12kt
مجال رؤية >10km
حالة الطقس Light Rain 1.00mm precipitation
غيوم Vertical Visibility of 0ft.
Overcast 2600ft
الضغط 993
تغيير No Significant change. Runway 21: Wet or puddles, 51-100% contamination with 1mm, friction coefficient 0.50.
خام USPP 220800Z 22006MPS 9999 -RA BKN007 OVC026 07/06 Q0993 R21/290150 NOSIG RMK QFE735

IFR

7°C / 6°C

[أكثر]
رياح 220º 14kt
مجال رؤية >10km
حالة الطقس Light Rain 1.00mm precipitation
غيوم Vertical Visibility of 0ft.
Overcast 2800ft
الضغط 994
تغيير No Significant change. Runway 21: Wet or puddles, 51-100% contamination with 1mm, friction coefficient 0.50.
خام USPP 220730Z 22007MPS 9999 -RA BKN006 OVC028 07/06 Q0994 R21/290150 NOSIG RMK QBB180 QFE735

LIFR

7°C / 5°C

[أكثر]
رياح 230º 10kt
مجال رؤية >10km
حالة الطقس -
غيوم Overcast 400ft
الضغط 994
تغيير No Significant change. Runway 21: Wet or puddles, 51-100% contamination with 1mm, friction coefficient 0.50.
خام USPP 220700Z 23005MPS 9999 OVC004 07/05 Q0994 R21/290150 NOSIG RMK QBB130 QFE735

LIFR

6°C / 5°C

[أكثر]
رياح 220º 14kt
مجال رؤية >10km
حالة الطقس -
غيوم Overcast 400ft
الضغط 994
تغيير No Significant change. Runway 21: Wet or puddles, 51-100% contamination with 1mm, friction coefficient 0.50.
خام USPP 220630Z 22007MPS 9999 OVC004 06/05 Q0994 R21/290150 NOSIG RMK QBB130 QFE735

LIFR

6°C / 5°C

[أكثر]
رياح 220º 12kt
مجال رؤية >10km
حالة الطقس -
غيوم Overcast 400ft
الضغط 994
تغيير No Significant change. Runway 21: Wet or puddles, 51-100% contamination with 1mm, friction coefficient 0.50.
خام USPP 220600Z 22006MPS 9999 OVC004 06/05 Q0994 R21/290150 NOSIG RMK QBB140 QFE735

LIFR

6°C / 4°C

[أكثر]
رياح 220º 12kt
مجال رؤية >10km
حالة الطقس -
غيوم Overcast 400ft
الضغط 994
تغيير No Significant change. Runway 21: Wet or puddles, 51-100% contamination with 1mm, friction coefficient 0.50.
خام USPP 220530Z 22006MPS 9999 OVC004 06/04 Q0994 R21/290150 NOSIG RMK QBB130 QFE735

LIFR

5°C / 4°C

[أكثر]
رياح 210º 12kt
مجال رؤية >10km
حالة الطقس -
غيوم Overcast 400ft
الضغط 995
تغيير No Significant change. Runway 21: Wet or puddles, 51-100% contamination with 1mm, friction coefficient 0.50.
خام USPP 220500Z 21006MPS 9999 OVC004 05/04 Q0995 R21/290150 NOSIG RMK QBB130 QFE735

LIFR

5°C / 4°C

[أكثر]
رياح 220º 14kt
مجال رؤية >10km
حالة الطقس -
غيوم Overcast 300ft
الضغط 995
تغيير No Significant change. Runway 21: Wet or puddles, 51-100% contamination with 1mm, friction coefficient 0.50.
خام USPP 220430Z 22007MPS 9999 OVC003 05/04 Q0995 R21/290150 NOSIG RMK QBB110 QFE736

LIFR

4°C / 3°C

[أكثر]
رياح 220º 12kt
مجال رؤية >10km
حالة الطقس -
غيوم Overcast 400ft
الضغط 995
تغيير No Significant change. Runway 21: Wet or puddles, 11-25% contamination with 1mm, friction coefficient 0.50.
خام USPP 220400Z 22006MPS 9999 OVC004 04/03 Q0995 R21/220150 NOSIG RMK QBB120 QFE736

LIFR

4°C / 3°C

[أكثر]
رياح 230º 10kt
مجال رؤية >10km
حالة الطقس -
غيوم Overcast 400ft
الضغط 995
تغيير No Significant change. Runway 21: Wet or puddles, 11-25% contamination with 1mm, friction coefficient 0.50.
خام USPP 220330Z 23005MPS 9999 OVC004 04/03 Q0995 R21/220150 NOSIG RMK QBB140 QFE735

IFR

3°C / 2°C

[أكثر]
رياح 230º 8kt
مجال رؤية >10km
حالة الطقس -
غيوم Overcast 500ft
الضغط 995
تغيير No Significant change. Runway 21: Wet or puddles, 11-25% contamination with 1mm, friction coefficient 0.50.
خام USPP 220300Z 23004MPS 9999 OVC005 03/02 Q0995 R21/220150 NOSIG RMK QBB150 QFE735

LIFR

3°C / 2°C

[أكثر]
رياح 220º 10kt
مجال رؤية >10km
حالة الطقس -
غيوم Overcast 400ft
الضغط 995
تغيير No Significant change. Runway 21: Wet or puddles, 11-25% contamination with 1mm, friction coefficient 0.50.
خام USPP 220230Z 22005MPS 9999 OVC004 03/02 Q0995 R21/220150 NOSIG RMK QBB130 QFE735

LIFR

3°C / 2°C

[أكثر]
رياح 230º 12kt
مجال رؤية >10km
حالة الطقس -
غيوم Overcast 400ft
الضغط 995
تغيير No Significant change. Runway 21: Slush, 11-25% contamination with 3mm, friction coefficient 0.45.
خام USPP 220200Z 23006MPS 9999 OVC004 03/02 Q0995 R21/620345 NOSIG RMK QBB140 QFE735

IFR

3°C / 2°C

[أكثر]
رياح 230º 10kt
مجال رؤية >10km
حالة الطقس -
غيوم Overcast 500ft
الضغط 994
تغيير No Significant change. Runway 21: Slush, 11-25% contamination with 3mm, friction coefficient 0.45.
خام USPP 220130Z 23005MPS 9999 OVC005 03/02 Q0994 R21/620345 NOSIG RMK QBB170 QFE735

IFR

3°C / 1°C

[أكثر]
رياح 230º 10kt
مجال رؤية >10km
حالة الطقس -
غيوم Overcast 700ft
الضغط 994
تغيير No Significant change. Runway 21: Slush, 11-25% contamination with 3mm, friction coefficient 0.45.
خام USPP 220100Z 23005MPS 9999 OVC007 03/01 Q0994 R21/620345 NOSIG RMK QFE735

انقر ل57.92°شمال 56.02°شرق (USPP)

From till


From till Wind 230º 10kt. Gust 27kt. Visibility 6000m. Light Rain . Overcast 800ft.
Temporarly from till Overcast 400ft.
Becoming from till Wind 230º 10kt. Gust 27kt. Visibility 6000m. Light Rain . Broken Clouds 1600ft.
Becoming from till Wind 230º 10kt. Gust 27kt. Visibility 10km or more. Broken Clouds 1600ft.

خام: TAF USPP 221055Z 2212/2312 23005G14MPS 6000 -RA OVC008 TEMPO 2212/2215 OVC004 BECMG 2216/2217 BKN016 BECMG 2304/2306 9999 NSW

صور الأقمار الصناعية الملتقطة و الأمطار حالياً ل57.92°شمال 56.02°شرق

المؤشر يدل على موقع 57.92°شمال 56.02°شرق. [أكثر]

تجمع صورة الأقمار الصناعية في الوقت الفعلي بين الضوء المرئي أثناء النهار والأشعة تحت الحمراء أثناء الليل. لا تبدو الصورة مظلمة ليلاً، لأن الأشعة تحت الحمراء يمكنها الكشف عن الاختلافات في درجة الحرارة. لسوء الحظ ، يصعب التمييز بين السحب المنخفضة والضباب ودرجات حرارة الأرض ، وبالتالي يمكن أن تكون الصور غير مرئية تقريبًا أثناء الليل. يتم تحديث صور الأقمار الصناعية Meteosat الخاصة بأوروبا في الوقت الفعلي كل 5 دقائق، بينما يتم تحديث صور GOES-16 / GOES-17 (أمريكا الشمالية والجنوبية) و Himawari (آسيا) كل 10 دقائق.

حقوق النسخ 2021 EUMETSAT / meteoblue. / حقوق النسخ 2021 meteoblue

رادار وهطول الأمطار التنبؤ الآني ل57.92°شمال 56.02°شرق

رذاذ
ضوء
معتدل
ثقيل
ثقيل جدا
وابل

مؤشر المكان يشير الى 57.92°شمال 56.02°شرق. تظهر في هذه الرسوم المتحركة هطول الامطار بالرادار للساعة الماضية, و توقعات 1h. رذاذ أو تساقط ثلوج خفيف قد يكون غير مرئي للرادار. كثافة هطول الأمطار مرمزة بالألوان وتتراوح من الأزرق الفاتح إلى البرتقالي.